Flight Track Log - Related Links

Times and Time Zones

All times are in EDT time to prevent confusion due to time zone crossing. See the EJA831 flight status page for this flight to view local times or setup timezone preferences in your user account.

Time Position Orientation Groundspeed Altitude Reporting Facility
EDT Latitude Longitude Course Direction KTS MPH feet Rate Location/Type
Thu 08:50:49 PM 40.8167 -74.1333 45° Northeast 207 238 1,600  Level New York TRACON
Thu 08:51:49 PM 40.8167 -74.2167 270° West 207 238 3,400 2,263 Climbing New York TRACON
Thu 08:52:43 PM 40.8167 -74.3000 270° West 245 282 5,900 1,421 Climbing New York TRACON
Thu 08:53:43 PM 40.8833 -74.3333 339° North 283 326 6,100 100 Climbing New York TRACON
Thu 08:54:43 PM 40.9333 -74.2667 45° Northeast 287 330 6,100  Level New York TRACON
Thu 08:55:43 PM 41.0167 -74.2167 24° Northeast 281 323 6,100  Level New York TRACON
Thu 08:56:00 PM 41.2272 -73.6194 45° Northeast  Level FlightAware Approximate
Thu 08:56:43 PM 41.0833 -74.1833 21° North 285 328 6,100  Level New York TRACON
Thu 08:57:43 PM 41.1500 -74.1333 29° Northeast 286 329 6,800 1,789 Climbing New York TRACON
Thu 08:58:37 PM 41.1833 -74.0500 62° Northeast 305 351 9,500 1,843 Climbing New York TRACON
Thu 09:00:16 PM 41.1703 -73.8575 95° East 338 389 11,500 1,585 Climbing Boston Center
Thu 09:01:16 PM 41.2175 -73.7481 60° Northeast 322 371 13,700 2,000 Climbing Boston Center
Thu 09:02:16 PM 41.2625 -73.6303 63° Northeast 340 391 15,500 1,650 Climbing Boston Center
Thu 09:03:16 PM 41.3239 -73.5292 51° Northeast 352 405 17,000 750 Climbing Boston Center
Thu 09:04:16 PM 41.4122 -73.4558 32° Northeast 374 430 17,000  Level Boston Center
Thu 09:05:16 PM 41.5042 -73.4103 20° North 360 414 17,000  Level Boston Center
Thu 09:06:16 PM 41.6025 -73.3617 20° North 360 414 17,000  Level Boston Center
Thu 09:07:16 PM 41.7008 -73.3158 19° North 360 414 17,000  Level Boston Center
Thu 09:08:16 PM 41.7825 -73.2697 23° Northeast 360 414 17,000  Level Boston Center
Thu 09:09:28 PM 41.8933 -73.2153 20° North 349 402 17,000  Level Boston Center
Thu 09:10:28 PM 41.9981 -73.1608 21° North 349 402 17,000  Level Boston Center
Thu 09:11:28 PM 42.0858 -73.1169 20° North 354 407 17,000  Level Boston Center
Thu 09:12:28 PM 42.1925 -73.0622 21° North 361 415 17,000  Level Boston Center
Thu 09:13:28 PM 42.2864 -73.0097 22° Northeast 366 421 17,000  Level Boston Center
Thu 09:14:28 PM 42.3867 -72.9600 20° North 373 429 17,000  Level Boston Center
Thu 09:15:28 PM 42.4828 -72.9103 21° North 373 429 17,000  Level Boston Center
Thu 09:16:28 PM 42.5767 -72.8603 21° North 373 429 17,000  Level Boston Center
Thu 09:17:28 PM 42.6644 -72.8183 19° North 373 429 17,000  Level Boston Center
Thu 09:18:28 PM 42.7606 -72.7681 21° North 373 429 17,000 -50 Level Boston Center
Thu 09:19:28 PM 42.8544 -72.7175 22° Northeast 373 429 16,900 -700 Descending Boston Center
Thu 09:20:28 PM 42.9483 -72.6697 20° North 368 423 15,600 -1,150 Descending Boston Center
Thu 09:21:28 PM 43.0422 -72.6192 21° North 368 423 14,600 -1,100 Descending Boston Center
Thu 09:22:28 PM 43.1339 -72.5711 21° North 358 412 13,400 -1,200 Descending Boston Center
Thu 09:23:28 PM 43.2236 -72.5228 21° North 347 399 12,200 -1,500 Descending Boston Center
Thu 09:24:28 PM 43.3069 -72.4800 20° North 334 384 10,400 -1,900 Descending Boston Center
Thu 09:25:28 PM 43.3819 -72.4372 23° Northeast 311 358 8,400 -2,000 Descending Boston Center
Thu 09:26:28 PM 43.4550 -72.4000 20° North 289 333 6,400 -1,700 Descending Boston Center
Thu 09:27:28 PM 43.5278 -72.3600 22° Northeast 282 325 5,000 -1,000 Descending Boston Center
Thu 09:28:28 PM 43.5819 -72.3053 36° Northeast 255 293 4,400 -800 Descending Boston Center
Thu 09:29:28 PM 43.6361 -72.2450 39° Northeast 232 267 3,400 -850 Descending Boston Center
Thu 09:30:28 PM 43.6650 -72.1992 49° Northeast 232 267 2,700 3,300 Descending Boston Center
Thu 09:31:28 PM 43.7108 -72.1472 39° Northeast 232 267 10,000 7,300 Climbing Boston Center

Login

Don't have an account? Register now (free) for customized features, flight alerts, and more!